createdAt,value
2018-05-08T00:12:17.078Z,2.60
2018-05-08T00:14:44.494Z,2.50
2018-05-08T00:17:11.899Z,2.55
2018-05-08T00:39:17.343Z,2.70
2018-05-08T00:41:45.519Z,2.20
2018-05-08T00:44:12.938Z,2.63
2018-05-08T01:50:26.178Z,2.07
2018-05-08T01:52:54.351Z,2.20
2018-05-08T01:55:22.531Z,1.95
2018-05-08T03:01:38.254Z,2.57
2018-05-08T03:04:05.711Z,2.20
2018-05-08T03:06:33.136Z,2.47
2018-05-08T03:09:00.540Z,2.27
2018-05-08T03:11:28.705Z,2.50
2018-05-08T03:13:56.113Z,2.37
2018-05-08T03:16:23.519Z,2.53
2018-05-08T03:18:50.938Z,2.40
2018-05-08T03:21:18.332Z,2.70
2018-05-08T03:23:45.750Z,2.70
2018-05-08T03:26:13.142Z,2.50
2018-05-08T03:28:41.327Z,2.80
2018-05-08T03:31:08.739Z,2.70
2018-05-08T03:33:36.914Z,2.80
2018-05-08T03:36:04.338Z,2.27
2018-05-08T03:38:31.731Z,2.40
2018-05-08T03:40:59.164Z,2.17
2018-05-08T03:43:26.591Z,3.03
2018-05-08T03:45:53.982Z,2.47
2018-05-08T03:48:22.166Z,2.40
2018-05-08T03:50:50.342Z,1.70
2018-05-08T03:53:17.758Z,2.10
2018-05-08T03:55:45.942Z,1.93
2018-05-08T03:58:13.364Z,2.43
2018-05-08T04:13:37.499Z,2.80
2018-05-08T04:33:15.331Z,3.10
2018-05-08T04:52:53.111Z,3.07
2018-05-08T05:05:10.715Z,3.00
2018-05-08T05:10:05.876Z,2.80
2018-05-08T05:15:00.238Z,2.70
2018-05-08T05:17:27.642Z,2.25
2018-05-08T06:04:06.607Z,2.70
2018-05-08T06:26:11.297Z,2.20
2018-05-08T06:28:39.504Z,1.80
2018-05-08T06:31:06.895Z,1.90
2018-05-08T06:33:35.074Z,1.80
2018-05-08T06:36:02.487Z,2.10
2018-05-08T06:38:30.658Z,2.30
2018-05-08T06:40:58.839Z,2.27
2018-05-08T06:58:08.795Z,2.17
2018-05-08T07:00:36.218Z,2.23
2018-05-08T07:03:03.631Z,2.37
2018-05-08T07:05:31.811Z,2.50
2018-05-08T07:07:59.228Z,2.30
2018-05-08T07:10:26.649Z,2.33
2018-05-08T07:12:54.056Z,2.60
2018-05-08T07:15:21.468Z,2.67
2018-05-08T07:17:48.872Z,2.30
2018-05-08T07:20:16.276Z,2.20
2018-05-08T07:22:43.699Z,2.50
2018-05-08T07:25:11.108Z,2.00
2018-05-08T07:27:38.517Z,1.70
2018-05-08T07:30:05.970Z,1.80
2018-05-08T07:32:33.331Z,1.93
2018-05-08T07:35:01.499Z,1.70
2018-05-08T07:37:29.675Z,1.90
2018-05-08T07:39:57.851Z,2.00
2018-05-08T07:42:25.263Z,1.90
2018-05-08T07:44:53.427Z,1.90
2018-05-08T07:47:21.598Z,1.73
2018-05-08T07:49:49.020Z,1.50
2018-05-08T07:52:17.184Z,1.67
2018-05-08T07:54:45.359Z,1.83
2018-05-08T07:57:12.759Z,1.87
2018-05-08T07:59:40.946Z,1.90
2018-05-08T08:09:30.018Z,1.60
2018-05-08T08:16:51.390Z,1.70
2018-05-08T08:24:13.503Z,1.50
2018-05-08T08:26:40.914Z,1.30
2018-05-08T08:29:08.315Z,1.60
2018-05-08T08:31:35.760Z,1.43
2018-05-08T08:34:03.157Z,1.70
2018-05-08T08:36:30.588Z,1.65
2018-05-08T08:38:57.998Z,1.25
2018-05-08T08:41:25.452Z,1.37
2018-05-08T08:43:52.864Z,1.67
2018-05-08T09:01:04.362Z,1.53
2018-05-08T09:20:42.098Z,1.20
2018-05-08T09:23:09.516Z,1.90
2018-05-08T09:25:36.921Z,1.70
2018-05-08T09:30:31.332Z,1.20
2018-05-08T09:32:58.807Z,1.80
2018-05-08T09:47:45.639Z,1.10
2018-05-08T09:57:34.714Z,1.30
2018-05-08T10:04:56.847Z,1.23
2018-05-08T10:07:24.252Z,1.30
2018-05-08T10:09:51.657Z,2.77
2018-05-08T10:12:19.831Z,1.13
2018-05-08T10:14:47.243Z,1.40
2018-05-08T10:17:14.743Z,1.30
2018-05-08T10:19:42.150Z,1.10
2018-05-08T10:22:10.340Z,1.50
2018-05-08T10:24:37.742Z,1.50
2018-05-08T10:27:05.918Z,1.60
2018-05-08T10:32:01.823Z,1.40
2018-05-08T10:36:57.735Z,1.20
2018-05-08T10:39:25.146Z,1.07
2018-05-08T10:44:20.312Z,1.42
2018-05-08T10:49:15.451Z,1.20
2018-05-08T10:51:42.864Z,1.10
2018-05-08T10:56:37.222Z,1.00
2018-05-08T12:15:07.702Z,0.90
2018-05-08T12:34:46.999Z,1.00
2018-05-08T13:09:05.782Z,1.20
2018-05-08T13:33:38.223Z,1.00
2018-05-08T13:36:05.639Z,1.00
2018-05-08T13:41:00.009Z,1.00
2018-05-08T13:45:54.382Z,1.17
2018-05-08T13:48:21.797Z,1.02
2018-05-08T14:05:34.091Z,1.10
2018-05-08T14:32:32.867Z,1.20
2018-05-08T14:47:16.676Z,1.12
2018-05-08T14:49:44.083Z,1.25
2018-05-08T15:14:17.543Z,1.20
2018-05-08T15:41:18.531Z,1.00
2018-05-08T15:43:45.940Z,1.20
2018-05-08T15:53:34.223Z,0.95
2018-05-08T16:25:29.249Z,1.03
2018-05-08T16:27:57.416Z,1.20
2018-05-08T16:35:20.331Z,1.30
2018-05-08T16:37:47.753Z,1.20
2018-05-08T16:40:15.159Z,3.20
2018-05-08T16:42:42.567Z,1.70
2018-05-08T16:45:10.738Z,1.17
2018-05-08T16:47:38.163Z,1.15
2018-05-08T16:50:06.348Z,1.23
2018-05-08T16:52:33.775Z,1.17
2018-05-08T16:55:01.956Z,1.30
2018-05-08T16:57:29.373Z,1.37
2018-05-08T16:59:57.556Z,1.40
2018-05-08T17:02:24.977Z,1.40
2018-05-08T17:04:53.249Z,1.20
2018-05-08T17:07:20.631Z,1.27
2018-05-08T17:09:48.037Z,1.10
2018-05-08T17:12:15.443Z,1.40
2018-05-08T17:14:43.619Z,1.60
2018-05-08T17:17:11.799Z,1.45
2018-05-08T17:19:39.205Z,1.30
2018-05-08T17:22:07.403Z,1.20
2018-05-08T17:24:34.806Z,1.10
2018-05-08T17:27:02.988Z,1.37
2018-05-08T17:29:30.398Z,1.20
2018-05-08T17:31:57.804Z,1.40
2018-05-08T17:34:25.215Z,1.55
2018-05-08T17:36:52.634Z,1.05
2018-05-08T17:39:20.075Z,1.30
2018-05-08T17:41:48.231Z,1.30
2018-05-08T17:44:16.427Z,1.52
2018-05-08T17:46:43.847Z,1.20
2018-05-08T17:49:11.256Z,1.35
2018-05-08T17:51:38.680Z,1.02
2018-05-08T17:54:06.108Z,1.20
2018-05-08T17:56:33.516Z,1.27
2018-05-08T17:59:00.931Z,1.50
2018-05-08T18:01:29.115Z,1.20
2018-05-08T18:03:56.601Z,1.30
2018-05-08T18:06:24.702Z,1.40
2018-05-08T18:08:52.905Z,1.37
2018-05-08T18:11:20.386Z,1.65
2018-05-08T18:13:48.480Z,1.35
2018-05-08T18:16:15.903Z,1.27
2018-05-08T18:18:44.102Z,1.30
2018-05-08T18:21:11.504Z,1.27
2018-05-08T18:23:39.676Z,1.48
2018-05-08T18:26:07.083Z,1.37
2018-05-08T18:28:34.495Z,1.40
2018-05-08T18:31:01.909Z,1.30
2018-05-08T18:33:29.306Z,1.30
2018-05-08T18:35:56.707Z,1.20
2018-05-08T18:38:24.120Z,1.40
2018-05-08T18:40:51.533Z,1.40
2018-05-08T18:43:18.927Z,1.30
2018-05-08T18:45:46.342Z,1.17
2018-05-08T18:48:13.768Z,1.53
2018-05-08T18:50:41.959Z,1.33
2018-05-08T18:53:09.367Z,1.30
2018-05-08T18:55:37.580Z,1.57
2018-05-08T18:58:04.991Z,1.40
2018-05-08T19:00:38.076Z,1.43
2018-05-08T19:03:05.475Z,1.47
2018-05-08T19:05:33.662Z,1.33
2018-05-08T19:08:01.094Z,1.57
2018-05-08T19:10:29.267Z,1.30
2018-05-08T19:12:56.679Z,1.53
2018-05-08T19:15:29.651Z,1.60
2018-05-08T19:17:57.822Z,1.60
2018-05-08T19:20:26.028Z,1.60
2018-05-08T19:22:53.426Z,1.47
2018-05-08T19:25:21.607Z,1.50
2018-05-08T19:27:49.018Z,1.50
2018-05-08T19:30:22.851Z,1.40
2018-05-08T19:32:50.247Z,1.70
2018-05-08T19:35:23.962Z,2.63
2018-05-08T19:37:57.039Z,2.03
2018-05-08T19:40:24.449Z,2.13
2018-05-08T19:42:52.610Z,2.17
2018-05-08T19:45:20.783Z,2.13
2018-05-08T19:47:48.196Z,1.63
2018-05-08T19:50:15.604Z,2.20
2018-05-08T19:52:43.003Z,2.10
2018-05-08T19:55:10.421Z,2.00
2018-05-08T19:57:37.833Z,2.17
2018-05-08T20:00:05.233Z,1.80
2018-05-08T20:02:32.663Z,2.23
2018-05-08T20:05:00.893Z,2.20
2018-05-08T20:07:28.279Z,1.87
2018-05-08T20:09:55.674Z,2.03
2018-05-08T20:12:23.083Z,2.20
2018-05-08T20:14:50.495Z,2.20
2018-05-08T20:17:17.902Z,1.80
2018-05-08T20:19:45.303Z,2.00
2018-05-08T20:27:06.671Z,1.50
2018-05-08T20:29:34.447Z,2.07
2018-05-08T20:32:01.876Z,1.93
2018-05-08T20:34:29.276Z,1.80
2018-05-08T20:44:18.355Z,2.10
2018-05-08T20:54:06.675Z,2.30
2018-05-08T20:56:34.866Z,2.30
2018-05-08T21:08:51.799Z,1.77
2018-05-08T21:18:40.091Z,2.10
2018-05-08T21:21:07.500Z,2.20
2018-05-08T21:23:34.915Z,2.23
2018-05-08T21:26:02.319Z,2.13
2018-05-08T21:43:24.439Z,2.20
2018-05-08T21:45:51.842Z,2.33
2018-05-08T21:48:19.247Z,2.03
2018-05-08T21:50:46.660Z,1.83
2018-05-08T21:53:14.068Z,2.00
2018-05-08T21:55:41.475Z,2.13
2018-05-08T21:58:08.876Z,1.97
2018-05-08T22:00:36.280Z,2.10
2018-05-08T22:03:03.686Z,2.17
2018-05-08T22:05:31.103Z,2.03
2018-05-08T22:07:58.511Z,2.20
2018-05-08T22:10:25.926Z,2.37
2018-05-08T22:20:15.789Z,2.17
2018-05-08T22:22:43.172Z,2.30
2018-05-08T22:25:11.351Z,1.80
2018-05-08T22:27:38.781Z,2.20
2018-05-08T22:30:06.944Z,2.00
2018-05-08T22:32:35.133Z,2.07
2018-05-08T22:35:02.533Z,2.10
2018-05-08T22:37:30.720Z,2.30
2018-05-08T22:39:58.130Z,2.20
2018-05-08T22:42:26.323Z,2.13
2018-05-08T22:44:53.727Z,2.03
2018-05-08T22:47:21.905Z,2.47
2018-05-08T22:49:50.079Z,2.07
2018-05-08T22:52:17.502Z,1.90
2018-05-08T22:54:45.670Z,2.07
2018-05-08T22:57:13.070Z,2.37
2018-05-08T22:59:40.484Z,2.40
2018-05-08T23:02:07.903Z,3.60
2018-05-08T23:09:29.228Z,2.50
2018-05-08T23:11:56.643Z,2.50
2018-05-08T23:14:24.039Z,2.17
